sensor_id;sensor_type;location;lat;lon;timestamp;temperature;humidity
14475;DHT22;7323;50.848;4.334;2022-11-15T00:00:07;12.40;99.90
14475;DHT22;7323;50.848;4.334;2022-11-15T00:02:33;12.30;99.90
14475;DHT22;7323;50.848;4.334;2022-11-15T00:04:59;12.50;99.90
14475;DHT22;7323;50.848;4.334;2022-11-15T00:07:24;12.50;99.90
14475;DHT22;7323;50.848;4.334;2022-11-15T00:09:50;12.50;99.90
14475;DHT22;7323;50.848;4.334;2022-11-15T00:12:16;12.40;99.90
14475;DHT22;7323;50.848;4.334;2022-11-15T00:14:42;12.40;99.90
14475;DHT22;7323;50.848;4.334;2022-11-15T00:17:11;12.40;99.90
14475;DHT22;7323;50.848;4.334;2022-11-15T00:19:37;12.50;99.90
14475;DHT22;7323;50.848;4.334;2022-11-15T00:22:02;12.40;99.90
14475;DHT22;7323;50.848;4.334;2022-11-15T00:24:28;12.40;99.90
14475;DHT22;7323;50.848;4.334;2022-11-15T00:26:56;12.30;99.90
14475;DHT22;7323;50.848;4.334;2022-11-15T00:29:22;12.30;99.90
14475;DHT22;7323;50.848;4.334;2022-11-15T00:31:48;12.40;99.90
14475;DHT22;7323;50.848;4.334;2022-11-15T00:34:13;12.40;99.90
14475;DHT22;7323;50.848;4.334;2022-11-15T00:36:40;12.40;99.90
14475;DHT22;7323;50.848;4.334;2022-11-15T00:39:05;12.50;99.90
14475;DHT22;7323;50.848;4.334;2022-11-15T00:41:31;12.50;99.90
14475;DHT22;7323;50.848;4.334;2022-11-15T00:43:57;12.50;99.90
14475;DHT22;7323;50.848;4.334;2022-11-15T00:46:22;12.50;99.90
14475;DHT22;7323;50.848;4.334;2022-11-15T00:48:49;12.50;99.90
14475;DHT22;7323;50.848;4.334;2022-11-15T00:51:15;12.50;99.90
14475;DHT22;7323;50.848;4.334;2022-11-15T00:53:47;12.50;99.90
14475;DHT22;7323;50.848;4.334;2022-11-15T00:56:12;12.50;99.90
14475;DHT22;7323;50.848;4.334;2022-11-15T00:58:38;12.60;99.90
14475;DHT22;7323;50.848;4.334;2022-11-15T01:01:12;12.60;99.90
14475;DHT22;7323;50.848;4.334;2022-11-15T01:03:40;12.50;99.90
14475;DHT22;7323;50.848;4.334;2022-11-15T01:06:07;12.60;99.90
14475;DHT22;7323;50.848;4.334;2022-11-15T01:08:33;12.60;99.90
14475;DHT22;7323;50.848;4.334;2022-11-15T01:11:03;12.50;99.90
14475;DHT22;7323;50.848;4.334;2022-11-15T01:13:32;12.60;99.90
14475;DHT22;7323;50.848;4.334;2022-11-15T01:15:58;12.60;99.90
14475;DHT22;7323;50.848;4.334;2022-11-15T01:18:24;12.60;99.90
14475;DHT22;7323;50.848;4.334;2022-11-15T01:20:50;12.60;99.90
14475;DHT22;7323;50.848;4.334;2022-11-15T01:23:15;12.60;99.90
14475;DHT22;7323;50.848;4.334;2022-11-15T01:25:41;12.60;99.90
14475;DHT22;7323;50.848;4.334;2022-11-15T01:28:07;12.70;99.90
14475;DHT22;7323;50.848;4.334;2022-11-15T01:30:33;12.80;99.90
14475;DHT22;7323;50.848;4.334;2022-11-15T01:32:58;12.70;99.90
14475;DHT22;7323;50.848;4.334;2022-11-15T01:35:24;12.70;99.90
14475;DHT22;7323;50.848;4.334;2022-11-15T01:37:50;12.80;99.90
14475;DHT22;7323;50.848;4.334;2022-11-15T01:40:15;12.80;99.90
14475;DHT22;7323;50.848;4.334;2022-11-15T01:42:41;12.80;99.90
14475;DHT22;7323;50.848;4.334;2022-11-15T01:45:13;12.80;99.90
14475;DHT22;7323;50.848;4.334;2022-11-15T01:47:42;13.00;99.90
14475;DHT22;7323;50.848;4.334;2022-11-15T01:50:14;12.70;99.90
14475;DHT22;7323;50.848;4.334;2022-11-15T01:52:41;12.80;99.90
14475;DHT22;7323;50.848;4.334;2022-11-15T01:55:22;12.70;99.90
14475;DHT22;7323;50.848;4.334;2022-11-15T01:57:53;12.70;99.90
14475;DHT22;7323;50.848;4.334;2022-11-15T02:00:20;12.90;99.90
14475;DHT22;7323;50.848;4.334;2022-11-15T02:02:46;12.80;99.90
14475;DHT22;7323;50.848;4.334;2022-11-15T02:05:12;12.70;99.90
14475;DHT22;7323;50.848;4.334;2022-11-15T02:07:38;12.70;99.90
14475;DHT22;7323;50.848;4.334;2022-11-15T02:10:10;12.80;99.90
14475;DHT22;7323;50.848;4.334;2022-11-15T02:12:36;12.80;99.90
14475;DHT22;7323;50.848;4.334;2022-11-15T02:15:04;12.80;99.90
14475;DHT22;7323;50.848;4.334;2022-11-15T02:36:02;12.70;99.90
14475;DHT22;7323;50.848;4.334;2022-11-15T02:38:41;12.70;99.90
14475;DHT22;7323;50.848;4.334;2022-11-15T02:41:20;12.70;99.90
14475;DHT22;7323;50.848;4.334;2022-11-15T02:44:03;12.70;99.90
14475;DHT22;7323;50.848;4.334;2022-11-15T02:46:35;12.70;99.90
14475;DHT22;7323;50.848;4.334;2022-11-15T02:49:46;12.70;99.90
14475;DHT22;7323;50.848;4.334;2022-11-15T02:52:16;12.60;99.90
14475;DHT22;7323;50.848;4.334;2022-11-15T02:54:43;12.60;99.90
14475;DHT22;7323;50.848;4.334;2022-11-15T02:57:16;12.70;99.90
14475;DHT22;7323;50.848;4.334;2022-11-15T03:16:02;12.60;99.90
14475;DHT22;7323;50.848;4.334;2022-11-15T03:18:38;12.70;99.90
14475;DHT22;7323;50.848;4.334;2022-11-15T03:21:08;12.70;99.90
14475;DHT22;7323;50.848;4.334;2022-11-15T03:23:37;12.60;99.90
14475;DHT22;7323;50.848;4.334;2022-11-15T03:26:07;12.50;99.90
14475;DHT22;7323;50.848;4.334;2022-11-15T03:28:50;12.50;99.90
14475;DHT22;7323;50.848;4.334;2022-11-15T03:31:19;12.50;99.90
14475;DHT22;7323;50.848;4.334;2022-11-15T03:34:05;12.60;99.90
14475;DHT22;7323;50.848;4.334;2022-11-15T03:36:33;12.60;99.90
14475;DHT22;7323;50.848;4.334;2022-11-15T03:39:03;12.50;99.90
14475;DHT22;7323;50.848;4.334;2022-11-15T03:41:46;12.40;99.90
14475;DHT22;7323;50.848;4.334;2022-11-15T03:49:40;12.50;99.90
14475;DHT22;7323;50.848;4.334;2022-11-15T03:52:06;12.50;99.90
14475;DHT22;7323;50.848;4.334;2022-11-15T03:54:32;12.40;99.90
14475;DHT22;7323;50.848;4.334;2022-11-15T03:56:57;12.40;99.90
14475;DHT22;7323;50.848;4.334;2022-11-15T03:59:23;12.40;99.90
14475;DHT22;7323;50.848;4.334;2022-11-15T04:01:49;12.30;99.90
14475;DHT22;7323;50.848;4.334;2022-11-15T04:04:15;12.50;99.90
14475;DHT22;7323;50.848;4.334;2022-11-15T04:06:43;12.30;99.90
14475;DHT22;7323;50.848;4.334;2022-11-15T04:09:09;12.20;99.90
14475;DHT22;7323;50.848;4.334;2022-11-15T04:11:36;12.20;99.90
14475;DHT22;7323;50.848;4.334;2022-11-15T04:14:03;12.30;99.90
14475;DHT22;7323;50.848;4.334;2022-11-15T04:16:30;12.30;99.90
14475;DHT22;7323;50.848;4.334;2022-11-15T04:18:56;12.30;99.90
14475;DHT22;7323;50.848;4.334;2022-11-15T04:21:41;12.20;99.90
14475;DHT22;7323;50.848;4.334;2022-11-15T04:24:25;12.30;99.90
14475;DHT22;7323;50.848;4.334;2022-11-15T04:26:50;12.20;99.90
14475;DHT22;7323;50.848;4.334;2022-11-15T04:29:16;12.20;99.90
14475;DHT22;7323;50.848;4.334;2022-11-15T04:32:01;12.20;99.90
14475;DHT22;7323;50.848;4.334;2022-11-15T04:34:26;12.30;99.90
14475;DHT22;7323;50.848;4.334;2022-11-15T04:36:52;12.30;99.90
14475;DHT22;7323;50.848;4.334;2022-11-15T04:39:36;12.30;99.90
14475;DHT22;7323;50.848;4.334;2022-11-15T04:42:22;12.30;99.90
14475;DHT22;7323;50.848;4.334;2022-11-15T04:44:48;12.20;99.90
14475;DHT22;7323;50.848;4.334;2022-11-15T04:47:14;12.20;99.90
14475;DHT22;7323;50.848;4.334;2022-11-15T04:49:40;12.10;99.90
14475;DHT22;7323;50.848;4.334;2022-11-15T04:52:06;12.10;99.90
14475;DHT22;7323;50.848;4.334;2022-11-15T04:54:31;12.20;99.90
14475;DHT22;7323;50.848;4.334;2022-11-15T04:56:57;12.20;99.90
14475;DHT22;7323;50.848;4.334;2022-11-15T04:59:22;12.10;99.90
14475;DHT22;7323;50.848;4.334;2022-11-15T05:01:48;12.10;99.90
14475;DHT22;7323;50.848;4.334;2022-11-15T05:04:14;12.10;99.90
14475;DHT22;7323;50.848;4.334;2022-11-15T05:06:54;12.00;99.90
14475;DHT22;7323;50.848;4.334;2022-11-15T05:09:20;12.10;99.90
14475;DHT22;7323;50.848;4.334;2022-11-15T05:11:47;12.10;99.90
14475;DHT22;7323;50.848;4.334;2022-11-15T05:14:14;11.90;99.90
14475;DHT22;7323;50.848;4.334;2022-11-15T05:16:43;11.90;99.90
14475;DHT22;7323;50.848;4.334;2022-11-15T05:19:09;11.80;99.90
14475;DHT22;7323;50.848;4.334;2022-11-15T05:21:35;11.80;99.90
14475;DHT22;7323;50.848;4.334;2022-11-15T05:24:02;11.80;99.90
14475;DHT22;7323;50.848;4.334;2022-11-15T05:26:27;11.80;99.90
14475;DHT22;7323;50.848;4.334;2022-11-15T05:28:57;11.90;99.90
14475;DHT22;7323;50.848;4.334;2022-11-15T05:31:24;11.80;99.90
14475;DHT22;7323;50.848;4.334;2022-11-15T05:33:51;11.70;99.90
14475;DHT22;7323;50.848;4.334;2022-11-15T05:36:38;11.80;99.90
14475;DHT22;7323;50.848;4.334;2022-11-15T05:39:07;11.60;99.90
14475;DHT22;7323;50.848;4.334;2022-11-15T05:41:37;11.50;99.90
14475;DHT22;7323;50.848;4.334;2022-11-15T05:44:07;11.60;99.90
14475;DHT22;7323;50.848;4.334;2022-11-15T05:46:33;11.50;99.90
14475;DHT22;7323;50.848;4.334;2022-11-15T05:49:01;11.60;99.90
14475;DHT22;7323;50.848;4.334;2022-11-15T05:51:28;11.40;99.90
14475;DHT22;7323;50.848;4.334;2022-11-15T05:53:59;11.40;99.90
14475;DHT22;7323;50.848;4.334;2022-11-15T05:56:55;11.40;99.90
14475;DHT22;7323;50.848;4.334;2022-11-15T05:59:40;11.50;99.90
14475;DHT22;7323;50.848;4.334;2022-11-15T06:02:30;11.30;99.90
14475;DHT22;7323;50.848;4.334;2022-11-15T06:04:57;11.30;99.90
14475;DHT22;7323;50.848;4.334;2022-11-15T06:07:32;11.30;99.90
14475;DHT22;7323;50.848;4.334;2022-11-15T06:10:18;11.30;99.90
14475;DHT22;7323;50.848;4.334;2022-11-15T06:12:55;11.20;99.90
14475;DHT22;7323;50.848;4.334;2022-11-15T06:15:21;11.20;99.90
14475;DHT22;7323;50.848;4.334;2022-11-15T06:17:50;11.20;99.90
14475;DHT22;7323;50.848;4.334;2022-11-15T06:20:47;11.10;99.90
14475;DHT22;7323;50.848;4.334;2022-11-15T06:23:13;11.10;99.90
14475;DHT22;7323;50.848;4.334;2022-11-15T06:25:39;11.10;99.90
14475;DHT22;7323;50.848;4.334;2022-11-15T06:28:06;11.10;99.90
14475;DHT22;7323;50.848;4.334;2022-11-15T06:31:17;11.10;99.90
14475;DHT22;7323;50.848;4.334;2022-11-15T06:33:46;11.10;99.90
14475;DHT22;7323;50.848;4.334;2022-11-15T06:36:16;11.10;99.90
14475;DHT22;7323;50.848;4.334;2022-11-15T06:38:43;11.10;99.90
14475;DHT22;7323;50.848;4.334;2022-11-15T06:41:10;10.90;99.90
14475;DHT22;7323;50.848;4.334;2022-11-15T06:43:46;11.00;99.90
14475;DHT22;7323;50.848;4.334;2022-11-15T06:46:24;11.10;99.90
14475;DHT22;7323;50.848;4.334;2022-11-15T06:48:54;11.00;99.90
14475;DHT22;7323;50.848;4.334;2022-11-15T06:51:20;11.00;99.90
14475;DHT22;7323;50.848;4.334;2022-11-15T06:53:46;11.00;99.90
14475;DHT22;7323;50.848;4.334;2022-11-15T06:56:13;11.10;99.90
14475;DHT22;7323;50.848;4.334;2022-11-15T06:58:39;11.00;99.90
14475;DHT22;7323;50.848;4.334;2022-11-15T07:01:31;10.90;99.90
14475;DHT22;7323;50.848;4.334;2022-11-15T07:04:06;10.90;99.90
14475;DHT22;7323;50.848;4.334;2022-11-15T07:06:47;10.80;99.90
14475;DHT22;7323;50.848;4.334;2022-11-15T07:09:14;10.80;99.90
14475;DHT22;7323;50.848;4.334;2022-11-15T07:11:40;10.80;99.90
14475;DHT22;7323;50.848;4.334;2022-11-15T07:14:06;10.70;99.90
14475;DHT22;7323;50.848;4.334;2022-11-15T07:16:33;10.80;99.90
14475;DHT22;7323;50.848;4.334;2022-11-15T07:19:03;10.80;99.90
14475;DHT22;7323;50.848;4.334;2022-11-15T07:21:35;10.80;99.90
14475;DHT22;7323;50.848;4.334;2022-11-15T07:24:02;10.80;99.90
14475;DHT22;7323;50.848;4.334;2022-11-15T07:26:31;10.80;99.90
14475;DHT22;7323;50.848;4.334;2022-11-15T07:28:56;10.80;99.90
14475;DHT22;7323;50.848;4.334;2022-11-15T07:31:22;10.80;99.90
14475;DHT22;7323;50.848;4.334;2022-11-15T07:33:48;10.90;99.90
14475;DHT22;7323;50.848;4.334;2022-11-15T07:36:14;10.80;99.90
14475;DHT22;7323;50.848;4.334;2022-11-15T07:38:40;11.00;99.90
14475;DHT22;7323;50.848;4.334;2022-11-15T07:41:06;10.80;99.90
14475;DHT22;7323;50.848;4.334;2022-11-15T07:43:32;10.90;99.90
14475;DHT22;7323;50.848;4.334;2022-11-15T07:46:07;10.80;99.90
14475;DHT22;7323;50.848;4.334;2022-11-15T07:48:50;10.80;99.90
14475;DHT22;7323;50.848;4.334;2022-11-15T07:51:21;11.00;99.90
14475;DHT22;7323;50.848;4.334;2022-11-15T07:53:51;10.80;99.90
14475;DHT22;7323;50.848;4.334;2022-11-15T07:56:20;10.80;99.90
14475;DHT22;7323;50.848;4.334;2022-11-15T07:58:47;10.90;99.90
14475;DHT22;7323;50.848;4.334;2022-11-15T08:01:14;10.90;99.90
14475;DHT22;7323;50.848;4.334;2022-11-15T08:03:40;11.10;99.90
14475;DHT22;7323;50.848;4.334;2022-11-15T08:06:06;10.90;99.90
14475;DHT22;7323;50.848;4.334;2022-11-15T08:08:33;11.00;99.90
14475;DHT22;7323;50.848;4.334;2022-11-15T08:11:00;11.10;99.90
14475;DHT22;7323;50.848;4.334;2022-11-15T08:13:27;11.20;99.90
14475;DHT22;7323;50.848;4.334;2022-11-15T08:16:00;11.20;99.90
14475;DHT22;7323;50.848;4.334;2022-11-15T08:18:26;11.40;99.90
14475;DHT22;7323;50.848;4.334;2022-11-15T08:20:52;11.50;99.90
14475;DHT22;7323;50.848;4.334;2022-11-15T08:23:18;11.50;99.90
14475;DHT22;7323;50.848;4.334;2022-11-15T08:25:43;11.50;99.90
14475;DHT22;7323;50.848;4.334;2022-11-15T08:28:10;11.50;99.90
14475;DHT22;7323;50.848;4.334;2022-11-15T08:30:41;11.40;99.70
14475;DHT22;7323;50.848;4.334;2022-11-15T08:33:11;11.60;99.80
14475;DHT22;7323;50.848;4.334;2022-11-15T08:35:38;11.60;99.50
14475;DHT22;7323;50.848;4.334;2022-11-15T08:38:05;11.70;98.80
14475;DHT22;7323;50.848;4.334;2022-11-15T08:40:30;11.80;97.80
14475;DHT22;7323;50.848;4.334;2022-11-15T08:42:57;11.90;96.50
14475;DHT22;7323;50.848;4.334;2022-11-15T08:45:24;11.90;95.20
14475;DHT22;7323;50.848;4.334;2022-11-15T08:47:50;11.80;94.80
14475;DHT22;7323;50.848;4.334;2022-11-15T08:50:16;11.80;94.30
14475;DHT22;7323;50.848;4.334;2022-11-15T08:52:42;11.80;94.70
14475;DHT22;7323;50.848;4.334;2022-11-15T08:55:08;11.90;93.80
14475;DHT22;7323;50.848;4.334;2022-11-15T08:57:35;11.70;93.20
14475;DHT22;7323;50.848;4.334;2022-11-15T09:00:02;11.70;94.00
14475;DHT22;7323;50.848;4.334;2022-11-15T09:02:28;11.70;93.80
14475;DHT22;7323;50.848;4.334;2022-11-15T09:04:54;11.70;93.80
14475;DHT22;7323;50.848;4.334;2022-11-15T09:07:19;11.80;93.90
14475;DHT22;7323;50.848;4.334;2022-11-15T09:09:46;11.90;92.90
14475;DHT22;7323;50.848;4.334;2022-11-15T09:12:12;12.20;92.10
14475;DHT22;7323;50.848;4.334;2022-11-15T09:14:38;12.10;91.20
14475;DHT22;7323;50.848;4.334;2022-11-15T09:17:07;12.10;90.60
14475;DHT22;7323;50.848;4.334;2022-11-15T09:19:37;12.00;90.20
14475;DHT22;7323;50.848;4.334;2022-11-15T09:22:05;12.00;90.30
14475;DHT22;7323;50.848;4.334;2022-11-15T09:24:32;12.20;89.40
14475;DHT22;7323;50.848;4.334;2022-11-15T09:26:58;12.20;85.60
14475;DHT22;7323;50.848;4.334;2022-11-15T09:29:26;12.30;83.50
14475;DHT22;7323;50.848;4.334;2022-11-15T09:31:59;12.40;80.80
14475;DHT22;7323;50.848;4.334;2022-11-15T09:34:25;12.50;78.80
14475;DHT22;7323;50.848;4.334;2022-11-15T09:36:58;12.70;77.30
14475;DHT22;7323;50.848;4.334;2022-11-15T09:39:24;12.70;74.30
14475;DHT22;7323;50.848;4.334;2022-11-15T09:45:22;12.80;70.20
14475;DHT22;7323;50.848;4.334;2022-11-15T09:48:22;13.00;68.10
14475;DHT22;7323;50.848;4.334;2022-11-15T09:50:53;13.00;64.50
14475;DHT22;7323;50.848;4.334;2022-11-15T09:53:55;13.10;63.10
14475;DHT22;7323;50.848;4.334;2022-11-15T09:56:27;13.10;61.20
14475;DHT22;7323;50.848;4.334;2022-11-15T09:59:19;13.10;60.50
14475;DHT22;7323;50.848;4.334;2022-11-15T10:04:40;13.10;57.60
14475;DHT22;7323;50.848;4.334;2022-11-15T10:07:34;13.40;57.10
14475;DHT22;7323;50.848;4.334;2022-11-15T10:10:39;13.20;56.30
14475;DHT22;7323;50.848;4.334;2022-11-15T10:13:20;13.00;57.10
14475;DHT22;7323;50.848;4.334;2022-11-15T10:15:51;12.90;59.20
14475;DHT22;7323;50.848;4.334;2022-11-15T10:18:55;12.90;60.60
14475;DHT22;7323;50.848;4.334;2022-11-15T10:24:24;13.00;59.30
14475;DHT22;7323;50.848;4.334;2022-11-15T10:27:04;13.00;58.00
14475;DHT22;7323;50.848;4.334;2022-11-15T10:29:34;13.50;57.30
14475;DHT22;7323;50.848;4.334;2022-11-15T10:32:26;13.40;52.80
14475;DHT22;7323;50.848;4.334;2022-11-15T10:35:26;13.40;52.10
14475;DHT22;7323;50.848;4.334;2022-11-15T10:38:19;13.40;52.30
14475;DHT22;7323;50.848;4.334;2022-11-15T10:40:47;13.60;49.20
14475;DHT22;7323;50.848;4.334;2022-11-15T10:43:18;13.60;46.70
14475;DHT22;7323;50.848;4.334;2022-11-15T10:46:21;13.60;47.40
14475;DHT22;7323;50.848;4.334;2022-11-15T10:49:23;13.80;46.50
14475;DHT22;7323;50.848;4.334;2022-11-15T10:51:47;13.80;43.50
14475;DHT22;7323;50.848;4.334;2022-11-15T10:54:18;13.80;41.80
14475;DHT22;7323;50.848;4.334;2022-11-15T10:56:59;13.70;41.00
14475;DHT22;7323;50.848;4.334;2022-11-15T10:59:29;13.80;41.60
14475;DHT22;7323;50.848;4.334;2022-11-15T11:02:23;13.70;43.60
14475;DHT22;7323;50.848;4.334;2022-11-15T11:04:53;13.60;42.50
14475;DHT22;7323;50.848;4.334;2022-11-15T11:07:22;13.50;46.30
14475;DHT22;7323;50.848;4.334;2022-11-15T11:09:59;13.60;46.40
14475;DHT22;7323;50.848;4.334;2022-11-15T11:12:33;13.70;45.50
14475;DHT22;7323;50.848;4.334;2022-11-15T11:15:01;13.80;43.80
14475;DHT22;7323;50.848;4.334;2022-11-15T11:20:25;13.90;41.70
14475;DHT22;7323;50.848;4.334;2022-11-15T11:26:05;13.80;42.30
14475;DHT22;7323;50.848;4.334;2022-11-15T11:32:30;13.70;41.20
14475;DHT22;7323;50.848;4.334;2022-11-15T11:41:51;14.00;37.10
14475;DHT22;7323;50.848;4.334;2022-11-15T11:44:30;14.10;34.70
14475;DHT22;7323;50.848;4.334;2022-11-15T11:49:46;14.10;8.80
14475;DHT22;7323;50.848;4.334;2022-11-15T11:52:17;14.20;6.50
14475;DHT22;7323;50.848;4.334;2022-11-15T11:54:52;14.20;5.60
14475;DHT22;7323;50.848;4.334;2022-11-15T12:04:04;14.20;7.40
14475;DHT22;7323;50.848;4.334;2022-11-15T12:06:35;14.00;12.00
14475;DHT22;7323;50.848;4.334;2022-11-15T12:09:23;14.00;16.30
14475;DHT22;7323;50.848;4.334;2022-11-15T12:11:58;14.10;15.20
14475;DHT22;7323;50.848;4.334;2022-11-15T12:15:04;14.10;16.30
14475;DHT22;7323;50.848;4.334;2022-11-15T12:17:38;14.10;16.00
14475;DHT22;7323;50.848;4.334;2022-11-15T12:23:03;14.20;17.00
14475;DHT22;7323;50.848;4.334;2022-11-15T12:26:07;14.20;16.90
14475;DHT22;7323;50.848;4.334;2022-11-15T12:31:36;14.20;22.40
14475;DHT22;7323;50.848;4.334;2022-11-15T12:46:03;14.30;24.40
14475;DHT22;7323;50.848;4.334;2022-11-15T12:51:02;14.30;23.50
14475;DHT22;7323;50.848;4.334;2022-11-15T12:53:32;14.20;24.10
14475;DHT22;7323;50.848;4.334;2022-11-15T12:58:43;14.50;22.80
14475;DHT22;7323;50.848;4.334;2022-11-15T13:06:56;14.70;23.50
14475;DHT22;7323;50.848;4.334;2022-11-15T13:12:09;14.50;26.50
14475;DHT22;7323;50.848;4.334;2022-11-15T13:14:46;14.50;25.80
14475;DHT22;7323;50.848;4.334;2022-11-15T13:22:26;14.80;24.30
14475;DHT22;7323;50.848;4.334;2022-11-15T13:30:53;14.80;22.10
14475;DHT22;7323;50.848;4.334;2022-11-15T13:33:29;14.80;21.70
14475;DHT22;7323;50.848;4.334;2022-11-15T13:35:59;14.60;23.90
14475;DHT22;7323;50.848;4.334;2022-11-15T13:38:32;14.80;25.90
14475;DHT22;7323;50.848;4.334;2022-11-15T13:41:23;14.70;24.70
14475;DHT22;7323;50.848;4.334;2022-11-15T13:43:52;14.60;26.40
14475;DHT22;7323;50.848;4.334;2022-11-15T13:46:26;14.70;26.00
14475;DHT22;7323;50.848;4.334;2022-11-15T13:49:10;14.60;25.50
14475;DHT22;7323;50.848;4.334;2022-11-15T13:51:57;14.70;25.90
14475;DHT22;7323;50.848;4.334;2022-11-15T13:54:34;14.70;22.90
14475;DHT22;7323;50.848;4.334;2022-11-15T13:57:09;14.70;24.40
14475;DHT22;7323;50.848;4.334;2022-11-15T14:00:01;14.80;24.60
14475;DHT22;7323;50.848;4.334;2022-11-15T14:02:34;14.70;25.90
14475;DHT22;7323;50.848;4.334;2022-11-15T14:05:16;14.70;28.50
14475;DHT22;7323;50.848;4.334;2022-11-15T14:11:11;14.70;29.60
14475;DHT22;7323;50.848;4.334;2022-11-15T14:13:39;14.60;30.50
14475;DHT22;7323;50.848;4.334;2022-11-15T14:18:49;14.50;33.50
14475;DHT22;7323;50.848;4.334;2022-11-15T14:21:17;14.40;36.40
14475;DHT22;7323;50.848;4.334;2022-11-15T14:23:44;14.40;39.40
14475;DHT22;7323;50.848;4.334;2022-11-15T14:26:32;14.40;42.00
14475;DHT22;7323;50.848;4.334;2022-11-15T14:31:49;14.30;51.90
14475;DHT22;7323;50.848;4.334;2022-11-15T14:34:14;14.30;55.80
14475;DHT22;7323;50.848;4.334;2022-11-15T14:36:40;14.20;58.70
14475;DHT22;7323;50.848;4.334;2022-11-15T14:39:06;14.30;59.30
14475;DHT22;7323;50.848;4.334;2022-11-15T14:41:35;14.30;60.30
14475;DHT22;7323;50.848;4.334;2022-11-15T14:44:05;14.30;63.00
14475;DHT22;7323;50.848;4.334;2022-11-15T14:46:31;14.30;61.80
14475;DHT22;7323;50.848;4.334;2022-11-15T14:48:57;14.30;64.00
14475;DHT22;7323;50.848;4.334;2022-11-15T14:51:24;14.30;65.70
14475;DHT22;7323;50.848;4.334;2022-11-15T14:53:51;14.30;69.70
14475;DHT22;7323;50.848;4.334;2022-11-15T14:56:23;14.20;71.70
14475;DHT22;7323;50.848;4.334;2022-11-15T14:58:50;14.30;72.40
14475;DHT22;7323;50.848;4.334;2022-11-15T15:01:24;14.10;75.90
14475;DHT22;7323;50.848;4.334;2022-11-15T15:03:56;14.00;80.60
14475;DHT22;7323;50.848;4.334;2022-11-15T15:06:27;13.90;83.50
14475;DHT22;7323;50.848;4.334;2022-11-15T15:08:57;13.90;84.50
14475;DHT22;7323;50.848;4.334;2022-11-15T15:11:28;13.80;88.00
14475;DHT22;7323;50.848;4.334;2022-11-15T15:13:58;13.80;89.60
14475;DHT22;7323;50.848;4.334;2022-11-15T15:16:35;13.80;90.40
14475;DHT22;7323;50.848;4.334;2022-11-15T15:19:01;13.90;91.20
14475;DHT22;7323;50.848;4.334;2022-11-15T15:21:31;13.90;89.10
14475;DHT22;7323;50.848;4.334;2022-11-15T15:24:34;13.90;90.10
14475;DHT22;7323;50.848;4.334;2022-11-15T15:27:02;13.90;91.20
14475;DHT22;7323;50.848;4.334;2022-11-15T15:29:28;13.60;92.40
14475;DHT22;7323;50.848;4.334;2022-11-15T15:31:54;13.70;93.60
14475;DHT22;7323;50.848;4.334;2022-11-15T15:34:20;13.80;93.80
14475;DHT22;7323;50.848;4.334;2022-11-15T15:36:47;13.90;93.30
14475;DHT22;7323;50.848;4.334;2022-11-15T15:39:16;13.90;93.20
14475;DHT22;7323;50.848;4.334;2022-11-15T15:41:58;13.80;94.60
14475;DHT22;7323;50.848;4.334;2022-11-15T15:44:51;13.70;94.90
14475;DHT22;7323;50.848;4.334;2022-11-15T15:47:25;13.60;97.10
14475;DHT22;7323;50.848;4.334;2022-11-15T15:49:57;13.80;97.70
14475;DHT22;7323;50.848;4.334;2022-11-15T15:52:24;13.80;96.80
14475;DHT22;7323;50.848;4.334;2022-11-15T15:54:52;13.80;97.10
14475;DHT22;7323;50.848;4.334;2022-11-15T15:57:20;13.80;97.70
14475;DHT22;7323;50.848;4.334;2022-11-15T15:59:45;13.60;98.40
14475;DHT22;7323;50.848;4.334;2022-11-15T16:02:12;13.70;99.00
14475;DHT22;7323;50.848;4.334;2022-11-15T16:04:38;13.80;99.50
14475;DHT22;7323;50.848;4.334;2022-11-15T16:07:04;13.80;99.50
14475;DHT22;7323;50.848;4.334;2022-11-15T16:09:33;13.70;99.30
14475;DHT22;7323;50.848;4.334;2022-11-15T16:12:17;13.80;99.90
14475;DHT22;7323;50.848;4.334;2022-11-15T16:14:43;13.70;99.90
14475;DHT22;7323;50.848;4.334;2022-11-15T16:17:22;13.60;99.90
14475;DHT22;7323;50.848;4.334;2022-11-15T16:19:58;13.50;99.90
14475;DHT22;7323;50.848;4.334;2022-11-15T16:22:33;13.50;99.90
14475;DHT22;7323;50.848;4.334;2022-11-15T16:25:03;13.60;99.90
14475;DHT22;7323;50.848;4.334;2022-11-15T16:27:29;13.70;99.90
14475;DHT22;7323;50.848;4.334;2022-11-15T16:30:20;13.70;99.90
14475;DHT22;7323;50.848;4.334;2022-11-15T16:33:09;13.60;99.90
14475;DHT22;7323;50.848;4.334;2022-11-15T16:36:18;13.60;99.90
14475;DHT22;7323;50.848;4.334;2022-11-15T16:38:51;13.60;99.90
14475;DHT22;7323;50.848;4.334;2022-11-15T16:41:46;13.60;99.90
14475;DHT22;7323;50.848;4.334;2022-11-15T16:44:37;13.70;99.90
14475;DHT22;7323;50.848;4.334;2022-11-15T16:47:27;13.70;99.90
14475;DHT22;7323;50.848;4.334;2022-11-15T16:50:30;13.80;99.90
14475;DHT22;7323;50.848;4.334;2022-11-15T16:53:01;13.70;99.90
14475;DHT22;7323;50.848;4.334;2022-11-15T16:55:29;13.70;99.90
14475;DHT22;7323;50.848;4.334;2022-11-15T16:58:02;13.70;99.90
14475;DHT22;7323;50.848;4.334;2022-11-15T17:00:29;13.70;99.90
14475;DHT22;7323;50.848;4.334;2022-11-15T17:02:54;13.60;99.90
14475;DHT22;7323;50.848;4.334;2022-11-15T17:05:23;13.60;99.90
14475;DHT22;7323;50.848;4.334;2022-11-15T17:07:55;13.60;99.90
14475;DHT22;7323;50.848;4.334;2022-11-15T17:10:26;13.50;99.90
14475;DHT22;7323;50.848;4.334;2022-11-15T17:13:00;13.50;99.90
14475;DHT22;7323;50.848;4.334;2022-11-15T17:15:28;13.50;99.90
14475;DHT22;7323;50.848;4.334;2022-11-15T17:17:59;13.40;99.90
14475;DHT22;7323;50.848;4.334;2022-11-15T17:20:29;13.40;99.90
14475;DHT22;7323;50.848;4.334;2022-11-15T17:23:19;13.40;99.90
14475;DHT22;7323;50.848;4.334;2022-11-15T17:26:16;13.30;99.90
14475;DHT22;7323;50.848;4.334;2022-11-15T17:28:42;13.30;99.90
14475;DHT22;7323;50.848;4.334;2022-11-15T17:31:27;13.30;99.90
14475;DHT22;7323;50.848;4.334;2022-11-15T17:34:00;13.30;99.90
14475;DHT22;7323;50.848;4.334;2022-11-15T17:36:32;13.30;99.90
14475;DHT22;7323;50.848;4.334;2022-11-15T17:39:00;13.30;99.90
14475;DHT22;7323;50.848;4.334;2022-11-15T17:41:28;13.30;99.90
14475;DHT22;7323;50.848;4.334;2022-11-15T17:44:00;13.30;99.90
14475;DHT22;7323;50.848;4.334;2022-11-15T17:46:28;13.30;99.90
14475;DHT22;7323;50.848;4.334;2022-11-15T17:48:56;13.30;99.90
14475;DHT22;7323;50.848;4.334;2022-11-15T17:51:24;13.30;99.90
14475;DHT22;7323;50.848;4.334;2022-11-15T17:53:50;13.30;99.90
14475;DHT22;7323;50.848;4.334;2022-11-15T17:56:24;13.40;99.90
14475;DHT22;7323;50.848;4.334;2022-11-15T17:58:56;13.50;99.90
14475;DHT22;7323;50.848;4.334;2022-11-15T18:01:26;13.40;99.90
14475;DHT22;7323;50.848;4.334;2022-11-15T18:03:53;13.50;99.90
14475;DHT22;7323;50.848;4.334;2022-11-15T18:06:21;13.40;99.90
14475;DHT22;7323;50.848;4.334;2022-11-15T18:08:51;13.30;99.90
14475;DHT22;7323;50.848;4.334;2022-11-15T18:11:24;13.30;99.90
14475;DHT22;7323;50.848;4.334;2022-11-15T18:13:52;13.30;99.90
14475;DHT22;7323;50.848;4.334;2022-11-15T18:16:21;13.40;99.90
14475;DHT22;7323;50.848;4.334;2022-11-15T18:18:57;13.40;99.90
14475;DHT22;7323;50.848;4.334;2022-11-15T18:21:27;13.20;99.90
14475;DHT22;7323;50.848;4.334;2022-11-15T18:23:55;13.50;99.90